Time;durP1;ratioP1;P1;durP2;ratioP2;P2;SDS_P1;SDS_P2;PMS_P1;PMS_P2;Temp;Humidity;BMP_temperature;BMP_pressure;BME280_temperature;BME280_humidity;BME280_pressure;Samples;Min_cycle;Max_cycle;Signal;HPM_P1;HPM_P2
2020/12/20 00:00:42;;;;;;;60.85;36.88;;;2.10;96.80;;;;;;2078902;28;20400;-72
2020/12/20 00:01:44;;;;;;;63.33;37.70;;;2.10;96.80;;;;;;2079314;28;20095;-72
2020/12/20 00:02:50;;;;;;;58.50;35.97;;;2.10;96.80;;;;;;2080356;28;20095;-72
2020/12/20 00:03:52;;;;;;;62.78;36.78;;;2.10;96.80;;;;;;2080616;28;20029;-72
2020/12/20 00:04:53;;;;;;;61.30;37.42;;;2.10;96.80;;;;;;2080359;28;20025;-71
2020/12/20 00:05:54;;;;;;;59.65;36.20;;;2.10;96.90;;;;;;2080258;28;20048;-71
2020/12/20 00:06:54;;;;;;;59.03;35.88;;;2.10;96.90;;;;;;2077379;28;20031;-71
2020/12/20 00:07:55;;;;;;;61.40;36.97;;;2.10;96.90;;;;;;2071376;28;20033;-72
2020/12/20 00:08:56;;;;;;;60.08;36.92;;;2.10;96.90;;;;;;2071481;28;20034;-72
2020/12/20 00:09:56;;;;;;;63.55;37.58;;;2.10;96.90;;;;;;2071443;28;20104;-71
2020/12/20 00:10:57;;;;;;;63.30;37.47;;;2.10;96.90;;;;;;2071587;28;20018;-71
2020/12/20 00:11:58;;;;;;;60.30;36.72;;;2.10;96.90;;;;;;2071819;28;20441;-75
2020/12/20 00:12:58;;;;;;;61.08;36.75;;;2.10;96.90;;;;;;2072024;28;20021;-72
2020/12/20 00:13:59;;;;;;;60.00;37.15;;;2.10;96.90;;;;;;2072202;28;20092;-71
2020/12/20 00:15:00;;;;;;;62.53;37.30;;;2.10;96.90;;;;;;2073308;28;20030;-71
2020/12/20 00:16:00;;;;;;;58.00;36.10;;;2.10;96.80;;;;;;2080283;28;20092;-71
2020/12/20 00:17:09;;;;;;;60.17;36.78;;;2.10;96.80;;;;;;2079795;28;20040;-72
2020/12/20 00:18:10;;;;;;;61.15;36.65;;;2.10;96.70;;;;;;2080263;28;20042;-72
2020/12/20 00:19:11;;;;;;;62.65;37.42;;;2.10;96.80;;;;;;2079511;28;20101;-71
2020/12/20 00:20:11;;;;;;;61.20;36.60;;;2.20;96.80;;;;;;2079601;28;20033;-72
2020/12/20 00:21:16;;;;;;;60.95;36.70;;;2.10;96.80;;;;;;2079531;28;20041;-72
2020/12/20 00:22:16;;;;;;;60.83;37.25;;;2.10;96.80;;;;;;2079914;28;20041;-72
2020/12/20 00:23:17;;;;;;;65.18;38.17;;;2.10;96.70;;;;;;2079472;28;20030;-72
2020/12/20 00:24:18;;;;;;;64.47;38.25;;;2.10;96.70;;;;;;2079415;28;20042;-72
2020/12/20 00:25:18;;;;;;;67.95;38.35;;;2.10;96.70;;;;;;2087846;28;20060;-73
2020/12/20 00:26:19;;;;;;;65.68;37.60;;;2.10;96.80;;;;;;2080056;28;20037;-72
2020/12/20 00:27:19;;;;;;;62.80;37.20;;;2.10;96.90;;;;;;2078883;28;20034;-72
2020/12/20 00:28:20;;;;;;;63.00;37.33;;;2.10;96.90;;;;;;2079445;28;20081;-71
2020/12/20 00:29:21;;;;;;;61.88;37.03;;;2.10;96.90;;;;;;2079535;28;20440;-72
2020/12/20 00:30:22;;;;;;;67.25;38.75;;;2.10;96.90;;;;;;2079482;28;20041;-71
2020/12/20 00:31:22;;;;;;;64.68;37.78;;;2.10;97.20;;;;;;2079350;28;20025;-73
2020/12/20 00:32:23;;;;;;;63.55;38.28;;;2.10;96.80;;;;;;2071209;28;20072;-73
2020/12/20 00:33:24;;;;;;;66.32;38.92;;;2.10;96.80;;;;;;2071386;28;20026;-72
2020/12/20 00:34:25;;;;;;;62.15;36.53;;;2.10;96.90;;;;;;2079254;28;20033;-73
2020/12/20 00:35:25;;;;;;;64.00;38.72;;;2.00;96.80;;;;;;2071308;28;20034;-73
2020/12/20 00:36:26;;;;;;;63.78;38.20;;;2.10;97.00;;;;;;2079534;28;20417;-72
2020/12/20 00:37:27;;;;;;;60.95;37.60;;;2.10;96.90;;;;;;2079440;28;20033;-71
2020/12/20 00:38:27;;;;;;;61.33;36.65;;;2.00;96.90;;;;;;2080125;28;20025;-71
2020/12/20 00:39:28;;;;;;;59.80;36.15;;;2.00;96.90;;;;;;2080119;28;20033;-73
2020/12/20 00:40:29;;;;;;;63.30;37.78;;;2.10;97.00;;;;;;2079411;28;20025;-71
2020/12/20 00:41:30;;;;;;;64.10;37.85;;;2.10;96.90;;;;;;2079333;28;20033;-73
2020/12/20 00:42:31;;;;;;;62.90;37.67;;;2.00;96.90;;;;;;2079999;28;20616;-73
2020/12/20 00:43:32;;;;;;;61.22;37.25;;;2.00;96.90;;;;;;2080000;28;20030;-73
2020/12/20 00:44:33;;;;;;;65.28;37.85;;;2.00;97.00;;;;;;2079954;28;20477;-71
2020/12/20 00:45:34;;;;;;;63.53;37.10;;;2.00;97.00;;;;;;2079367;28;20089;-74
2020/12/20 00:46:36;;;;;;;62.00;37.47;;;2.00;97.00;;;;;;2079452;28;20032;-71
2020/12/20 00:47:36;;;;;;;63.55;37.70;;;2.10;97.10;;;;;;2079420;28;20036;-71
2020/12/20 00:48:37;;;;;;;66.45;38.22;;;2.10;97.00;;;;;;2080107;28;20534;-72
2020/12/20 00:49:38;;;;;;;65.35;39.42;;;2.10;97.00;;;;;;2080068;28;20378;-73
2020/12/20 00:50:39;;;;;;;64.70;38.17;;;2.00;97.10;;;;;;2080172;28;20049;-72
2020/12/20 00:51:40;;;;;;;63.60;37.15;;;2.00;97.00;;;;;;2079657;28;20084;-73
2020/12/20 00:52:40;;;;;;;64.55;37.15;;;2.00;96.90;;;;;;2072573;28;20449;-73
2020/12/20 00:53:44;;;;;;;64.72;37.97;;;2.00;97.00;;;;;;2073636;28;20040;-72
2020/12/20 00:54:45;;;;;;;65.60;37.88;;;2.00;97.00;;;;;;2063962;28;20038;-73
2020/12/20 00:55:50;;;;;;;61.33;37.05;;;2.00;97.10;;;;;;2063531;28;20029;-72
2020/12/20 00:56:51;;;;;;;65.60;38.33;;;2.00;97.10;;;;;;2063076;28;20093;-73
2020/12/20 00:57:52;;;;;;;68.13;38.97;;;2.00;97.10;;;;;;2063278;28;20974;-72
2020/12/20 00:58:54;;;;;;;64.28;37.92;;;2.00;97.20;;;;;;2071297;28;20503;-73
2020/12/20 00:59:54;;;;;;;66.55;38.67;;;2.00;97.50;;;;;;2079374;28;20029;-72
2020/12/20 01:00:56;;;;;;;64.03;37.35;;;2.00;97.10;;;;;;2071231;28;20532;-73
2020/12/20 01:01:59;;;;;;;68.55;39.95;;;2.00;97.10;;;;;;2063000;28;20030;-72
2020/12/20 01:03:01;;;;;;;65.68;38.45;;;2.00;97.10;;;;;;2079468;28;20093;-72
2020/12/20 01:04:02;;;;;;;64.70;38.03;;;2.00;97.10;;;;;;2079920;28;20029;-72
2020/12/20 01:05:03;;;;;;;61.72;37.85;;;2.00;97.10;;;;;;2079324;28;20108;-74
2020/12/20 01:06:04;;;;;;;64.43;38.00;;;2.00;97.10;;;;;;2071101;28;20026;-73
2020/12/20 01:07:07;;;;;;;66.45;38.65;;;2.00;97.10;;;;;;2075178;28;20021;-72
2020/12/20 01:08:13;;;;;;;66.75;37.90;;;2.00;97.10;;;;;;2071262;28;20120;-72
2020/12/20 01:09:16;;;;;;;63.75;38.10;;;2.00;97.10;;;;;;2063256;28;20589;-73
2020/12/20 01:10:18;;;;;;;65.97;37.88;;;2.00;97.10;;;;;;2063329;28;20383;-72
2020/12/20 01:11:19;;;;;;;69.05;40.05;;;2.00;97.20;;;;;;2062962;28;20529;-73
2020/12/20 01:12:20;;;;;;;67.35;39.30;;;2.00;97.20;;;;;;2063784;28;20093;-72
2020/12/20 01:13:49;;;;;;;68.00;38.28;;;2.00;97.20;;;;;;2067694;28;20097;-73
2020/12/20 01:14:50;;;;;;;67.95;39.25;;;2.00;97.20;;;;;;2072828;28;20093;-72
2020/12/20 01:15:51;;;;;;;67.53;38.50;;;2.00;97.10;;;;;;2072551;28;20030;-72
2020/12/20 01:16:52;;;;;;;69.05;40.22;;;2.00;97.20;;;;;;2080415;28;20029;-73
2020/12/20 01:17:53;;;;;;;67.18;38.55;;;2.00;97.20;;;;;;2088991;28;20079;-72
2020/12/20 01:18:56;;;;;;;67.28;39.72;;;2.00;97.20;;;;;;2080772;28;20031;-72
2020/12/20 01:19:57;;;;;;;65.30;38.45;;;2.00;97.20;;;;;;2072775;28;20543;-73
2020/12/20 01:20:57;;;;;;;66.43;39.40;;;2.00;97.20;;;;;;2080723;28;20033;-73
2020/12/20 01:22:00;;;;;;;63.45;37.80;;;2.00;97.10;;;;;;2080477;28;20021;-72
2020/12/20 01:23:00;;;;;;;67.90;38.90;;;2.00;97.00;;;;;;2072756;28;20413;-72
2020/12/20 01:24:02;;;;;;;65.78;38.45;;;1.90;97.00;;;;;;2073389;28;20033;-73
2020/12/20 01:25:04;;;;;;;67.15;38.88;;;1.90;97.00;;;;;;2082016;28;20052;-73
2020/12/20 01:26:05;;;;;;;68.15;39.25;;;1.90;97.10;;;;;;2073527;28;20089;-73
2020/12/20 01:27:05;;;;;;;64.30;37.97;;;1.90;97.20;;;;;;2072725;28;20485;-72
2020/12/20 01:28:06;;;;;;;66.63;38.70;;;1.90;97.20;;;;;;2073129;28;20045;-73
2020/12/20 01:29:13;;;;;;;63.75;37.08;;;1.90;97.20;;;;;;2073489;28;20072;-73
2020/12/20 01:30:14;;;;;;;63.63;37.28;;;1.90;97.20;;;;;;2080697;28;20080;-72
2020/12/20 01:31:15;;;;;;;65.15;37.13;;;1.90;97.20;;;;;;2081344;28;20026;-73
2020/12/20 01:32:36;;;;;;;62.70;36.15;;;1.90;97.20;;;;;;2080637;28;20022;-72
2020/12/20 01:33:42;;;;;;;66.35;37.92;;;1.90;97.20;;;;;;2080670;28;20512;-73
2020/12/20 01:34:45;;;;;;;65.82;37.78;;;1.90;97.20;;;;;;2080561;28;20037;-72
2020/12/20 01:35:47;;;;;;;65.03;37.22;;;1.80;97.20;;;;;;2072679;28;20057;-72
2020/12/20 01:36:48;;;;;;;62.40;36.80;;;1.80;97.20;;;;;;2072499;28;20468;-72
2020/12/20 01:37:49;;;;;;;60.22;35.33;;;1.80;97.20;;;;;;2080122;28;20029;-73
2020/12/20 01:38:50;;;;;;;63.58;37.22;;;1.80;97.20;;;;;;2089032;28;20048;-72
2020/12/20 01:39:51;;;;;;;63.60;36.35;;;1.80;97.30;;;;;;2080710;28;20025;-72
2020/12/20 01:40:53;;;;;;;61.80;36.17;;;1.90;97.30;;;;;;2072496;28;20026;-72
2020/12/20 01:41:55;;;;;;;61.47;35.92;;;1.90;97.20;;;;;;2072494;28;20029;-72
2020/12/20 01:43:05;;;;;;;61.20;35.88;;;1.90;97.10;;;;;;2080744;28;20033;-73
2020/12/20 01:44:09;;;;;;;62.05;36.33;;;1.90;97.10;;;;;;2080542;28;20491;-72
2020/12/20 01:45:17;;;;;;;62.47;35.38;;;1.90;97.10;;;;;;2073637;28;20033;-72
2020/12/20 01:46:20;;;;;;;62.90;35.78;;;1.90;97.20;;;;;;2072543;28;20089;-72
2020/12/20 01:47:21;;;;;;;62.95;36.45;;;1.90;97.10;;;;;;2080514;28;20025;-72
2020/12/20 01:48:22;;;;;;;65.30;37.00;;;1.90;97.10;;;;;;2080492;28;20057;-72
2020/12/20 01:49:23;;;;;;;62.60;37.13;;;1.90;97.20;;;;;;2072459;28;20022;-72
2020/12/20 01:50:23;;;;;;;63.50;35.92;;;1.90;97.20;;;;;;2080606;28;20472;-73
2020/12/20 01:51:29;;;;;;;63.15;36.40;;;1.90;97.20;;;;;;2088542;28;20052;-72
2020/12/20 01:52:41;;;;;;;61.17;35.33;;;1.90;97.10;;;;;;2072393;28;20525;-73
2020/12/20 01:53:47;;;;;;;60.08;35.55;;;1.90;97.10;;;;;;2066627;28;20039;-72
2020/12/20 01:54:51;;;;;;;64.53;36.70;;;1.80;97.10;;;;;;2072614;28;20042;-73
2020/12/20 01:56:01;;;;;;;63.72;36.47;;;1.80;97.10;;;;;;2073807;28;20069;-73
2020/12/20 01:57:04;;;;;;;63.47;36.53;;;1.80;97.10;;;;;;2072599;28;20477;-72
2020/12/20 01:58:27;;;;;;;61.35;35.03;;;1.80;97.20;;;;;;2075233;28;20029;-74
2020/12/20 01:59:38;;;;;;;64.57;37.08;;;1.80;97.20;;;;;;2073891;28;20057;-72
2020/12/20 02:00:39;;;;;;;65.05;36.78;;;1.80;97.20;;;;;;2072795;28;20089;-72
2020/12/20 02:02:20;;;;;;;62.42;35.17;;;1.80;97.20;;;;;;2078182;28;20052;-72
2020/12/20 02:03:24;;;;;;;63.70;36.28;;;1.80;97.20;;;;;;2081208;28;20060;-72
2020/12/20 02:04:26;;;;;;;61.00;34.92;;;1.80;97.10;;;;;;2073044;28;20037;-72
2020/12/20 02:05:27;;;;;;;62.63;36.20;;;1.80;97.10;;;;;;2080693;28;20025;-72
2020/12/20 02:06:29;;;;;;;63.55;36.05;;;1.80;97.10;;;;;;2080511;28;20026;-73
2020/12/20 02:07:35;;;;;;;64.35;36.83;;;1.80;97.10;;;;;;2065030;28;20036;-72
2020/12/20 02:08:37;;;;;;;61.22;35.42;;;1.80;97.20;;;;;;2064362;28;20027;-72
2020/12/20 02:09:40;;;;;;;65.50;36.78;;;1.80;97.10;;;;;;2072610;28;20209;-72
2020/12/20 02:10:41;;;;;;;63.33;34.97;;;1.80;97.10;;;;;;2074369;28;20421;-73
2020/12/20 02:11:43;;;;;;;62.90;35.92;;;1.90;97.20;;;;;;2074548;28;20500;-73
2020/12/20 02:12:50;;;;;;;62.80;36.20;;;1.90;97.20;;;;;;2074943;28;20505;-73
2020/12/20 02:13:58;;;;;;;61.63;34.92;;;1.90;97.10;;;;;;2074741;28;20025;-72
2020/12/20 02:15:15;;;;;;;60.28;34.58;;;1.90;97.10;;;;;;2075797;28;20120;-72
2020/12/20 02:16:18;;;;;;;61.28;35.50;;;1.90;97.10;;;;;;2072310;28;20057;-72
2020/12/20 02:17:20;;;;;;;62.67;35.47;;;1.80;97.10;;;;;;2072613;28;20030;-73
2020/12/20 02:18:21;;;;;;;62.20;35.00;;;1.90;97.10;;;;;;2080277;28;20032;-73
2020/12/20 02:19:23;;;;;;;62.47;35.13;;;1.90;97.00;;;;;;2080298;28;20654;-72
2020/12/20 02:20:39;;;;;;;63.60;35.42;;;1.90;97.00;;;;;;2080312;28;20123;-72
2020/12/20 02:21:45;;;;;;;60.65;35.20;;;1.90;97.10;;;;;;2072610;28;20046;-72
2020/12/20 02:22:54;;;;;;;62.10;35.85;;;1.90;97.10;;;;;;2072637;28;20013;-72
2020/12/20 02:23:55;;;;;;;63.17;36.40;;;1.90;97.10;;;;;;2071747;28;20022;-73
2020/12/20 02:25:02;;;;;;;63.03;35.88;;;1.90;97.10;;;;;;2080977;28;20185;-72
2020/12/20 02:26:24;;;;;;;60.05;34.20;;;1.90;97.10;;;;;;2072096;28;20456;-72
2020/12/20 02:27:26;;;;;;;60.85;35.05;;;1.80;97.00;;;;;;2066763;28;20038;-73
2020/12/20 02:28:30;;;;;;;60.60;34.67;;;1.90;97.00;;;;;;2080532;28;20033;-72
2020/12/20 02:29:44;;;;;;;59.67;34.30;;;1.80;97.00;;;;;;2086830;28;20669;-72
2020/12/20 02:30:45;;;;;;;64.18;37.03;;;1.80;97.00;;;;;;2080365;28;20029;-72
2020/12/20 02:31:53;;;;;;;61.88;35.50;;;1.80;97.10;;;;;;2080044;28;20542;-72
2020/12/20 02:32:54;;;;;;;62.00;35.55;;;1.80;97.20;;;;;;2080064;28;20025;-72
2020/12/20 02:33:57;;;;;;;65.18;36.40;;;1.80;97.20;;;;;;2072257;28;20025;-72
2020/12/20 02:35:00;;;;;;;61.35;36.22;;;1.80;97.10;;;;;;2072349;28;20036;-72
2020/12/20 02:36:02;;;;;;;60.75;34.38;;;1.80;97.10;;;;;;2080226;28;20033;-72
2020/12/20 02:37:03;;;;;;;62.40;35.50;;;1.80;97.10;;;;;;2071504;28;20057;-72
2020/12/20 02:38:17;;;;;;;62.45;36.13;;;1.80;97.10;;;;;;2067393;28;20030;-71
2020/12/20 02:39:40;;;;;;;61.97;35.08;;;1.80;97.10;;;;;;2074606;28;20030;-72
2020/12/20 02:40:41;;;;;;;62.13;35.40;;;1.80;97.10;;;;;;2081200;28;20026;-72
2020/12/20 02:41:44;;;;;;;60.45;34.60;;;1.80;97.20;;;;;;2081511;28;20035;-72
2020/12/20 02:42:45;;;;;;;61.20;35.05;;;1.80;97.10;;;;;;2073575;28;20052;-73
2020/12/20 02:43:48;;;;;;;64.82;36.45;;;1.80;97.10;;;;;;2080888;28;20472;-72
2020/12/20 02:44:51;;;;;;;65.13;36.45;;;1.80;97.10;;;;;;2088197;28;20036;-71
2020/12/20 02:45:53;;;;;;;64.80;36.53;;;1.80;97.10;;;;;;2072848;28;20199;-72
2020/12/20 02:46:53;;;;;;;63.97;36.58;;;1.80;97.10;;;;;;2065172;28;20033;-72
2020/12/20 02:48:00;;;;;;;62.45;35.38;;;1.80;97.10;;;;;;2076691;28;20029;-73
2020/12/20 02:49:03;;;;;;;63.10;35.83;;;1.80;97.20;;;;;;2075160;28;20026;-72
2020/12/20 02:50:06;;;;;;;61.95;35.13;;;1.80;97.20;;;;;;2081644;28;20094;-72
2020/12/20 02:51:13;;;;;;;62.67;35.92;;;1.70;97.20;;;;;;2080920;28;20034;-72
2020/12/20 02:52:15;;;;;;;62.33;35.75;;;1.70;97.20;;;;;;2079959;28;20039;-72
2020/12/20 02:53:17;;;;;;;66.07;36.53;;;1.80;97.20;;;;;;2071811;28;20117;-72
2020/12/20 02:54:18;;;;;;;63.10;36.65;;;1.80;97.20;;;;;;2080060;28;20034;-72
2020/12/20 02:55:19;;;;;;;63.13;36.63;;;1.80;97.20;;;;;;2080196;28;20032;-72
2020/12/20 02:56:25;;;;;;;65.47;37.58;;;1.80;97.30;;;;;;2071905;28;20030;-72
2020/12/20 02:57:28;;;;;;;63.75;36.38;;;1.80;97.20;;;;;;2064571;28;20026;-72
2020/12/20 02:58:42;;;;;;;65.03;36.65;;;1.80;97.20;;;;;;2073658;28;20607;-72
2020/12/20 02:59:50;;;;;;;63.97;36.72;;;1.80;97.20;;;;;;2064808;28;20095;-72
2020/12/20 03:00:52;;;;;;;63.90;36.03;;;1.80;97.10;;;;;;2064879;28;20021;-72
2020/12/20 03:01:54;;;;;;;64.20;36.42;;;1.80;97.10;;;;;;2071762;28;20064;-73
2020/12/20 03:02:55;;;;;;;60.22;35.28;;;1.80;97.10;;;;;;2080033;28;20037;-72
2020/12/20 03:03:57;;;;;;;65.60;37.67;;;1.80;97.30;;;;;;2088061;28;20071;-72
2020/12/20 03:04:57;;;;;;;60.58;35.25;;;1.80;97.30;;;;;;2080519;28;20087;-72
2020/12/20 03:05:58;;;;;;;62.67;35.78;;;1.80;97.30;;;;;;2080017;28;20018;-72
2020/12/20 03:06:59;;;;;;;61.08;35.67;;;1.80;97.30;;;;;;2076728;28;20018;-72
2020/12/20 03:08:00;;;;;;;62.92;36.15;;;1.80;97.30;;;;;;2071828;28;20870;-72
2020/12/20 03:09:03;;;;;;;66.03;36.72;;;1.80;97.20;;;;;;2072062;28;20061;-72
2020/12/20 03:10:05;;;;;;;64.95;36.08;;;1.80;97.20;;;;;;2071870;28;20509;-72
2020/12/20 03:11:06;;;;;;;64.68;36.05;;;1.80;97.20;;;;;;2071907;28;20026;-73
2020/12/20 03:12:09;;;;;;;65.07;37.47;;;1.80;97.20;;;;;;2063243;28;20046;-73
2020/12/20 03:13:10;;;;;;;61.95;36.15;;;1.80;97.20;;;;;;2063856;28;20022;-73
2020/12/20 03:14:11;;;;;;;60.92;36.05;;;1.90;97.20;;;;;;2079846;28;20044;-72
2020/12/20 03:15:18;;;;;;;63.80;36.05;;;1.80;97.10;;;;;;2075286;28;20021;-72
2020/12/20 03:16:20;;;;;;;65.03;36.72;;;1.80;97.10;;;;;;2080160;28;20047;-72
2020/12/20 03:17:20;;;;;;;62.85;36.67;;;1.80;97.10;;;;;;2081039;28;20026;-72
2020/12/20 03:18:22;;;;;;;63.92;36.65;;;1.80;97.20;;;;;;2080112;28;20639;-72
2020/12/20 03:19:22;;;;;;;62.78;36.92;;;1.80;97.20;;;;;;2063802;28;20147;-72
2020/12/20 03:20:27;;;;;;;66.53;37.65;;;1.80;97.20;;;;;;2072756;28;20041;-72
2020/12/20 03:21:28;;;;;;;66.07;37.85;;;1.80;97.10;;;;;;2079548;28;20053;-72
2020/12/20 03:22:51;;;;;;;62.35;35.92;;;1.80;97.20;;;;;;2079907;28;20029;-72
2020/12/20 03:24:30;;;;;;;65.10;36.67;;;1.80;97.20;;;;;;2071064;28;20782;-72
2020/12/20 03:25:53;;;;;;;64.32;35.55;;;1.90;97.20;;;;;;2063296;28;20184;-72
2020/12/20 03:27:12;;;;;;;64.35;34.60;;;1.80;97.10;;;;;;2054861;28;20113;-73
2020/12/20 03:28:39;;;;;;;61.42;34.13;;;1.80;97.10;;;;;;2062715;28;20126;-72
2020/12/20 03:30:19;;;;;;;66.40;35.72;;;1.80;97.10;;;;;;2052014;28;20054;-72
2020/12/20 03:31:35;;;;;;;62.35;35.00;;;1.80;97.10;;;;;;2046667;29;20031;-72
2020/12/20 03:32:56;;;;;;;65.50;36.50;;;1.80;97.10;;;;;;2039544;28;20031;-72
2020/12/20 03:34:17;;;;;;;66.47;36.25;;;1.80;97.20;;;;;;2044881;28;20041;-73
2020/12/20 03:35:22;;;;;;;63.67;36.03;;;1.80;97.20;;;;;;2046999;28;20030;-72
2020/12/20 03:36:34;;;;;;;63.60;35.95;;;1.80;97.20;;;;;;2081418;28;20030;-72
2020/12/20 03:37:37;;;;;;;65.15;36.28;;;1.80;97.20;;;;;;2079315;28;20029;-72
2020/12/20 03:38:45;;;;;;;67.30;37.47;;;1.70;97.10;;;;;;2072532;28;20065;-72
2020/12/20 03:39:46;;;;;;;63.35;35.80;;;1.70;97.20;;;;;;2071609;28;20026;-72
2020/12/20 03:40:47;;;;;;;63.67;35.80;;;1.70;97.20;;;;;;2071519;28;20026;-73
2020/12/20 03:41:51;;;;;;;65.15;36.53;;;1.70;97.30;;;;;;2071624;28;20122;-72
2020/12/20 03:42:56;;;;;;;63.70;35.65;;;1.70;97.30;;;;;;2079786;28;20040;-72
2020/12/20 03:43:59;;;;;;;62.33;35.13;;;1.70;97.30;;;;;;2079520;28;20021;-74
2020/12/20 03:45:01;;;;;;;60.35;34.53;;;1.70;97.30;;;;;;2071680;28;20030;-72
2020/12/20 03:46:02;;;;;;;60.83;34.55;;;1.70;97.30;;;;;;2079623;28;20025;-72
2020/12/20 03:47:24;;;;;;;58.20;33.35;;;1.70;97.40;;;;;;2071084;28;20061;-73
2020/12/20 03:48:25;;;;;;;60.03;33.20;;;1.80;97.30;;;;;;2058031;28;20084;-73
2020/12/20 03:49:26;;;;;;;59.45;33.70;;;1.80;97.30;;;;;;2063522;28;20022;-73
2020/12/20 03:50:32;;;;;;;60.30;34.55;;;1.80;97.20;;;;;;2079838;28;20051;-72
2020/12/20 03:51:33;;;;;;;59.47;33.03;;;1.80;97.20;;;;;;2071364;28;20069;-72
2020/12/20 03:52:34;;;;;;;56.53;32.60;;;1.70;97.10;;;;;;2063326;28;20041;-72
2020/12/20 03:53:40;;;;;;;58.03;32.83;;;1.80;97.20;;;;;;2072160;28;20486;-72
2020/12/20 03:54:44;;;;;;;55.83;31.95;;;1.70;97.10;;;;;;2071792;28;20603;-73
2020/12/20 03:55:46;;;;;;;56.42;33.05;;;1.70;97.40;;;;;;2079719;28;20539;-73
2020/12/20 03:56:46;;;;;;;54.75;31.50;;;1.70;97.10;;;;;;2079500;28;20025;-72
2020/12/20 03:57:51;;;;;;;53.58;30.35;;;1.70;97.10;;;;;;2071906;28;20592;-72
2020/12/20 03:58:56;;;;;;;57.53;31.42;;;1.70;97.20;;;;;;2080284;28;20025;-72
2020/12/20 03:59:58;;;;;;;52.00;30.17;;;1.80;97.20;;;;;;2079610;28;20025;-72
2020/12/20 04:00:59;;;;;;;50.78;29.23;;;1.70;97.10;;;;;;2079601;28;20037;-73
2020/12/20 04:02:06;;;;;;;48.72;28.10;;;1.80;97.20;;;;;;2087556;28;20033;-73
2020/12/20 04:03:07;;;;;;;50.03;28.98;;;1.80;97.10;;;;;;2071371;28;20101;-73
2020/12/20 04:04:15;;;;;;;49.92;27.42;;;1.80;97.00;;;;;;2064934;28;20022;-72
2020/12/20 04:05:18;;;;;;;46.83;26.40;;;1.80;96.90;;;;;;2071848;28;20209;-73
2020/12/20 04:06:21;;;;;;;45.20;26.23;;;1.70;96.90;;;;;;2071899;28;20088;-72
2020/12/20 04:07:22;;;;;;;43.80;26.20;;;1.70;96.90;;;;;;2073264;28;20768;-72
2020/12/20 04:08:26;;;;;;;44.80;26.15;;;1.70;96.80;;;;;;2063474;28;20034;-72
2020/12/20 04:09:49;;;;;;;40.92;23.58;;;1.80;96.80;;;;;;2058005;28;20066;-72
2020/12/20 04:10:55;;;;;;;42.22;24.70;;;1.80;96.80;;;;;;2079313;28;20045;-72
2020/12/20 04:11:56;;;;;;;38.92;23.13;;;1.80;96.70;;;;;;2071298;28;20421;-73
2020/12/20 04:12:58;;;;;;;41.25;23.60;;;1.80;96.70;;;;;;2071598;28;20022;-72
2020/12/20 04:14:04;;;;;;;38.30;22.73;;;1.80;96.60;;;;;;2071529;28;20390;-73
2020/12/20 04:15:08;;;;;;;40.50;23.42;;;1.80;96.60;;;;;;2074214;28;20490;-72
2020/12/20 04:16:10;;;;;;;39.10;22.38;;;1.80;96.60;;;;;;2087948;28;20079;-72
2020/12/20 04:17:12;;;;;;;39.67;22.65;;;1.80;96.60;;;;;;2079199;28;20045;-72
2020/12/20 04:18:13;;;;;;;35.58;21.20;;;1.80;96.60;;;;;;2079631;28;20022;-72
2020/12/20 04:19:15;;;;;;;34.70;20.70;;;1.80;96.50;;;;;;2079538;28;20116;-72
2020/12/20 04:20:21;;;;;;;34.53;20.67;;;1.80;96.50;;;;;;2072332;28;20091;-72
2020/12/20 04:21:26;;;;;;;35.67;21.52;;;1.80;96.40;;;;;;2071799;28;20036;-72
2020/12/20 04:22:28;;;;;;;36.03;21.58;;;1.80;96.40;;;;;;2079599;28;20163;-72
2020/12/20 04:23:49;;;;;;;35.25;20.25;;;1.80;96.40;;;;;;2085452;28;20043;-72
2020/12/20 04:24:55;;;;;;;36.28;21.13;;;1.90;96.40;;;;;;2079867;28;20029;-72
2020/12/20 04:26:07;;;;;;;35.65;20.67;;;1.90;96.30;;;;;;2073180;28;20022;-73
2020/12/20 04:27:34;;;;;;;39.55;21.50;;;1.90;96.20;;;;;;2082674;28;20029;-72
2020/12/20 04:28:38;;;;;;;36.15;21.30;;;1.80;96.20;;;;;;2079447;28;20032;-72
2020/12/20 04:29:50;;;;;;;38.40;22.35;;;1.80;96.20;;;;;;2081040;28;20503;-72
2020/12/20 04:30:53;;;;;;;35.50;21.15;;;1.80;96.30;;;;;;2087792;28;20064;-72
2020/12/20 04:32:02;;;;;;;35.45;21.13;;;1.80;96.30;;;;;;2071090;28;20029;-72
2020/12/20 04:33:04;;;;;;;34.65;20.48;;;1.80;96.30;;;;;;2064862;28;20022;-71
2020/12/20 04:34:08;;;;;;;35.78;21.20;;;1.80;96.30;;;;;;2063702;28;20398;-72
2020/12/20 04:35:09;;;;;;;36.15;20.67;;;1.80;96.40;;;;;;2071819;28;20026;-72
2020/12/20 04:36:10;;;;;;;33.35;20.13;;;1.70;96.40;;;;;;2079464;28;20053;-72
2020/12/20 04:37:11;;;;;;;32.47;19.95;;;1.70;96.40;;;;;;2071532;28;20034;-72
2020/12/20 04:38:34;;;;;;;32.45;20.00;;;1.70;96.40;;;;;;2080274;28;20264;-72
2020/12/20 04:39:35;;;;;;;34.08;20.05;;;1.70;96.40;;;;;;2080027;28;20026;-72
2020/12/20 04:40:35;;;;;;;34.10;20.48;;;1.70;96.40;;;;;;2071625;28;20493;-72
2020/12/20 04:41:36;;;;;;;33.38;20.10;;;1.80;96.50;;;;;;2071550;28;20080;-72
2020/12/20 04:42:43;;;;;;;33.97;20.90;;;1.80;96.40;;;;;;2079507;28;20040;-72
2020/12/20 04:43:47;;;;;;;30.70;18.88;;;1.80;96.30;;;;;;2079762;28;20025;-72
2020/12/20 04:44:47;;;;;;;35.20;20.48;;;1.80;96.30;;;;;;2079492;28;20025;-72
2020/12/20 04:45:52;;;;;;;34.13;20.55;;;1.80;96.30;;;;;;2079461;28;20097;-72
2020/12/20 04:47:04;;;;;;;34.75;20.67;;;1.80;96.30;;;;;;2079365;28;20121;-72
2020/12/20 04:48:13;;;;;;;33.35;20.17;;;1.80;96.30;;;;;;2081063;28;20052;-72
2020/12/20 04:49:29;;;;;;;37.28;20.15;;;1.80;96.30;;;;;;2083128;28;20699;-72
2020/12/20 04:50:34;;;;;;;33.33;20.55;;;1.70;96.30;;;;;;2081806;28;20028;-72
2020/12/20 04:51:36;;;;;;;34.95;21.25;;;1.70;96.40;;;;;;2073238;28;20721;-72
2020/12/20 04:52:39;;;;;;;33.58;20.05;;;1.70;96.40;;;;;;2065455;28;20027;-71
2020/12/20 04:53:45;;;;;;;32.35;19.60;;;1.70;96.50;;;;;;2065770;28;20034;-72
2020/12/20 04:54:54;;;;;;;32.65;19.60;;;1.70;96.40;;;;;;2073908;28;20030;-72
2020/12/20 04:56:26;;;;;;;34.20;20.00;;;1.70;96.40;;;;;;2076978;28;20041;-73
2020/12/20 04:57:40;;;;;;;31.10;19.23;;;1.70;96.40;;;;;;2080540;28;20038;-71
2020/12/20 04:58:44;;;;;;;34.67;19.33;;;1.70;96.40;;;;;;2073600;28;20045;-72
2020/12/20 04:59:45;;;;;;;33.97;20.02;;;1.70;96.40;;;;;;2073579;28;20042;-72
2020/12/20 05:00:49;;;;;;;35.53;20.83;;;1.70;96.40;;;;;;2081568;28;20025;-72
2020/12/20 05:01:52;;;;;;;35.88;20.80;;;1.70;96.50;;;;;;2073874;28;20264;-72
2020/12/20 05:02:53;;;;;;;33.17;20.95;;;1.70;96.50;;;;;;2073252;28;20022;-72
2020/12/20 05:03:54;;;;;;;35.08;21.52;;;1.60;96.50;;;;;;2073865;28;20038;-72
2020/12/20 05:04:55;;;;;;;35.60;21.25;;;1.70;96.50;;;;;;2073397;28;20026;-72
2020/12/20 05:05:55;;;;;;;35.03;20.58;;;1.60;96.50;;;;;;2081576;28;20025;-72
2020/12/20 05:06:56;;;;;;;31.17;19.23;;;1.70;96.50;;;;;;2078451;28;20481;-72
2020/12/20 05:08:13;;;;;;;31.38;19.05;;;1.70;96.50;;;;;;2074258;28;20034;-72
2020/12/20 05:09:14;;;;;;;32.63;19.75;;;1.70;96.40;;;;;;2081776;28;20045;-71
2020/12/20 05:10:41;;;;;;;34.72;20.05;;;1.70;96.40;;;;;;2073610;28;20516;-72
2020/12/20 05:11:43;;;;;;;32.65;19.48;;;1.60;96.70;;;;;;2074254;28;20089;-71
2020/12/20 05:12:54;;;;;;;33.40;20.27;;;1.60;96.50;;;;;;2067803;28;20029;-72
2020/12/20 05:13:58;;;;;;;35.53;21.20;;;1.60;96.50;;;;;;2059793;28;20026;-72
2020/12/20 05:15:16;;;;;;;32.47;19.60;;;1.60;96.60;;;;;;2059357;28;20426;-71
2020/12/20 05:16:36;;;;;;;31.83;19.38;;;1.60;96.60;;;;;;2076342;28;20104;-73
2020/12/20 05:18:10;;;;;;;33.92;20.05;;;1.60;96.60;;;;;;2087403;28;20200;-72
2020/12/20 05:19:16;;;;;;;35.17;20.40;;;1.60;96.60;;;;;;2083415;28;20080;-73
2020/12/20 05:20:37;;;;;;;33.40;20.42;;;1.60;96.50;;;;;;2074689;28;20049;-72
2020/12/20 05:21:39;;;;;;;34.00;20.40;;;1.60;96.60;;;;;;2082911;28;20017;-70
2020/12/20 05:22:40;;;;;;;34.17;19.98;;;1.70;96.60;;;;;;2082051;28;20846;-71
2020/12/20 05:23:47;;;;;;;32.38;19.95;;;1.70;96.50;;;;;;2082960;28;20026;-71
2020/12/20 05:25:17;;;;;;;31.63;19.17;;;1.70;96.40;;;;;;2072489;28;20052;-71
2020/12/20 05:26:30;;;;;;;32.25;19.25;;;1.70;96.40;;;;;;2079111;28;20044;-72
2020/12/20 05:27:31;;;;;;;34.00;19.80;;;1.70;96.40;;;;;;2080767;28;20080;-72
2020/12/20 05:28:38;;;;;;;33.40;20.38;;;1.70;96.30;;;;;;2081335;28;20568;-72
2020/12/20 05:29:39;;;;;;;35.22;20.98;;;1.80;96.30;;;;;;2081531;28;20032;-72
2020/12/20 05:30:46;;;;;;;33.28;20.85;;;1.80;96.20;;;;;;2081009;28;20021;-72
2020/12/20 05:32:30;;;;;;;36.28;20.08;;;1.80;96.20;;;;;;2064852;28;20022;-72
2020/12/20 05:33:38;;;;;;;36.90;21.10;;;1.70;96.20;;;;;;2064782;28;20030;-71
2020/12/20 05:35:04;;;;;;;33.08;19.70;;;1.70;96.20;;;;;;2064877;28;20069;-71